Portada
METAR-TAF:

METAR-TAF

Aeropuertos :

Laupheim, Alemania

latitud: 48-13N, longitud: 009-55E, altitud: 538 m

Observación

El informe se hizo hace 54 minutos, a las 20:20 UTC
Viento 6 kt del suroeste
Temperatura 12°C
Humedad 94%
Presión 1016 hPa
Visibilidad: 3400 m

METAR: ETHL 232020Z AUTO 22006KT 3400 // ////// 12/11 Q1016 ///

Hora: 23:14 (21:14 UTC)

Pronóstico

El informe se hizo hace 10 horas y 54 minutos, a las 10:20 UTC
Pronóstico válido del 23 a las 11 UTC al 23 a las 20 UTC
Viento 5 kt del sur-suroeste
Visibilidad: 9000 m
Nubes dispersas a una altura de 2000 ft
Cielo nuboso a una altura de 6000 ft
Temporalmente
del 23 a las 11 UTC al 23 a las 20 UTC
Viento 5 kt del sur-suroeste
Visibilidad: 5000 m
Nubes dispersas a una altura de 500 ft
Cielo nuboso a una altura de 4000 ft
lluvia ligera, neblina

TAF: ETHL 231020Z 2311/2320 20005KT 9000 NSW SCT020 BKN060 TEMPO 2311/2320 21005KT 5000 -RA BR SCT005 BKN040

Observaciones y pronósticos meteorológicos de más de 4000 aeropuertos (mensajes METAR y TAF).

Los puntos amarillos y rojos representan las estaciones disponibles.

Ponga el ratón en el punto deseado para ver el nombre de la estación.

Haga clic para ver las observaciones y los pronósticos meteorológicos.

Para cambiar el mapa : haga clic en los botones verdes con una cruz de color negro para hacer un zoom, en el botón verde con un guión para alejar o en las flechas verdes para mapas adyacentes.


METAR-TAF: